createdAt,value
2022-09-10T00:02:42.363Z,72.40
2022-09-10T00:05:46.481Z,72.30
2022-09-10T00:08:49.364Z,72.40
2022-09-10T00:11:51.762Z,72.30
2022-09-10T00:14:54.456Z,72.30
2022-09-10T00:17:56.584Z,72.20
2022-09-10T00:21:00.655Z,72.20
2022-09-10T00:24:05.354Z,72.90
2022-09-10T00:27:07.596Z,72.20
2022-09-10T00:30:10.213Z,72.20
2022-09-10T00:33:13.454Z,72.20
2022-09-10T00:36:25.211Z,72.20
2022-09-10T00:39:27.694Z,72.30
2022-09-10T00:42:30.707Z,72.10
2022-09-10T00:45:36.870Z,72.10
2022-09-10T00:48:39.174Z,72.20
2022-09-10T00:51:42.324Z,72.20
2022-09-10T00:54:46.456Z,72.20
2022-09-10T00:57:54.951Z,72.20
2022-09-10T01:01:01.621Z,72.20
2022-09-10T01:04:06.433Z,72.20
2022-09-10T01:07:10.727Z,72.20
2022-09-10T01:10:24.975Z,72.30
2022-09-10T01:13:38.587Z,72.40
2022-09-10T01:17:05.009Z,72.50
2022-09-10T01:20:38.341Z,72.50
2022-09-10T01:23:58.453Z,72.60
2022-09-10T01:27:26.500Z,72.50
2022-09-10T01:30:41.908Z,72.50
2022-09-10T01:33:54.400Z,72.40
2022-09-10T01:37:04.401Z,72.30
2022-09-10T01:40:07.506Z,72.30
2022-09-10T01:43:11.853Z,72.10
2022-09-10T01:46:41.804Z,71.60
2022-09-10T01:50:09.232Z,71.70
2022-09-10T01:53:34.320Z,71.70
2022-09-10T01:57:01.697Z,71.30
2022-09-10T02:00:14.415Z,70.80
2022-09-10T02:03:22.868Z,70.50
2022-09-10T02:06:30.678Z,70.90
2022-09-10T02:09:34.822Z,71.10
2022-09-10T02:12:37.312Z,71.00
2022-09-10T02:15:59.647Z,71.00
2022-09-10T02:19:08.298Z,71.00
2022-09-10T02:22:11.187Z,71.00
2022-09-10T02:25:13.351Z,71.10
2022-09-10T02:28:15.759Z,71.10
2022-09-10T02:31:18.924Z,71.10
2022-09-10T02:34:21.800Z,71.10
2022-09-10T02:37:25.373Z,71.10
2022-09-10T02:40:31.604Z,71.10
2022-09-10T02:43:38.407Z,71.20
2022-09-10T02:46:40.900Z,71.20
2022-09-10T02:49:43.320Z,71.20
2022-09-10T02:52:46.409Z,71.20
2022-09-10T02:55:48.945Z,71.30
2022-09-10T02:58:51.623Z,71.30
2022-09-10T03:01:54.855Z,71.30
2022-09-10T03:04:58.124Z,71.40
2022-09-10T03:08:01.177Z,71.40
2022-09-10T03:11:04.988Z,71.40
2022-09-10T03:14:10.696Z,71.40
2022-09-10T03:17:13.224Z,71.50
2022-09-10T03:20:16.015Z,71.60
2022-09-10T03:23:19.076Z,71.60
2022-09-10T03:26:25.285Z,71.60
2022-09-10T03:29:30.200Z,71.70
2022-09-10T03:32:34.415Z,71.70
2022-09-10T03:35:36.814Z,71.80
2022-09-10T03:38:39.380Z,71.70
2022-09-10T03:41:41.938Z,71.80
2022-09-10T03:44:44.702Z,71.80
2022-09-10T03:47:48.114Z,71.80
2022-09-10T03:50:53.565Z,72.60
2022-09-10T03:53:55.862Z,71.80
2022-09-10T03:56:59.104Z,71.80
2022-09-10T04:00:01.921Z,71.80
2022-09-10T04:03:05.773Z,71.90
2022-09-10T04:06:16.311Z,71.90
2022-09-10T04:09:18.505Z,71.90
2022-09-10T04:12:20.688Z,71.90
2022-09-10T04:15:24.792Z,71.90
2022-09-10T04:18:30.198Z,71.90
2022-09-10T04:21:32.419Z,71.90
2022-09-10T04:24:34.724Z,72.00
2022-09-10T04:27:37.040Z,72.00
2022-09-10T04:30:40.380Z,71.90
2022-09-10T04:33:43.315Z,72.00
2022-09-10T04:36:46.421Z,72.00
2022-09-10T04:39:49.053Z,71.90
2022-09-10T04:42:51.465Z,71.90
2022-09-10T04:45:56.859Z,71.90
2022-09-10T04:49:00.912Z,71.90
2022-09-10T04:52:03.513Z,71.90
2022-09-10T04:55:06.217Z,71.90
2022-09-10T04:58:08.549Z,72.00
2022-09-10T05:01:11.624Z,71.90
2022-09-10T05:04:13.850Z,72.00
2022-09-10T05:07:18.011Z,71.90
2022-09-10T05:10:20.659Z,72.10
2022-09-10T05:13:24.324Z,72.00
2022-09-10T05:16:26.635Z,71.90
2022-09-10T05:19:29.180Z,72.00
2022-09-10T05:22:40.458Z,72.00
2022-09-10T05:25:47.989Z,72.00
2022-09-10T05:28:53.414Z,72.10
2022-09-10T05:31:56.415Z,72.00
2022-09-10T05:35:00.411Z,72.00
2022-09-10T05:38:15.825Z,72.20
2022-09-10T05:48:31.485Z,72.10
2022-09-10T05:51:33.949Z,72.10
2022-09-10T05:54:49.019Z,72.10
2022-09-10T05:57:51.461Z,72.10
2022-09-10T06:00:55.531Z,72.00
2022-09-10T06:03:58.440Z,72.10
2022-09-10T06:07:06.397Z,72.20
2022-09-10T06:10:30.721Z,72.10
2022-09-10T06:13:34.325Z,72.20
2022-09-10T06:16:43.422Z,72.20
2022-09-10T06:19:46.711Z,72.30
2022-09-10T06:26:37.173Z,72.30
2022-09-10T06:29:45.039Z,72.20
2022-09-10T06:32:48.259Z,72.30
2022-09-10T06:35:59.117Z,72.40
2022-09-10T06:39:03.569Z,72.40
2022-09-10T06:42:14.153Z,72.30
2022-09-10T06:45:42.159Z,72.30
2022-09-10T06:49:13.404Z,72.20
2022-09-10T06:52:19.095Z,72.20
2022-09-10T06:55:23.589Z,72.40
2022-09-10T06:58:25.803Z,72.20
2022-09-10T07:01:28.594Z,72.30
2022-09-10T07:04:34.153Z,72.00
2022-09-10T07:07:36.993Z,72.00
2022-09-10T07:10:44.379Z,72.10
2022-09-10T07:13:52.043Z,72.10
2022-09-10T07:16:57.052Z,72.10
2022-09-10T07:20:02.811Z,72.10
2022-09-10T07:23:21.733Z,72.10
2022-09-10T07:26:26.737Z,72.10
2022-09-10T07:29:31.275Z,72.10
2022-09-10T07:32:35.319Z,72.10
2022-09-10T07:35:45.756Z,72.00
2022-09-10T07:38:52.467Z,71.90
2022-09-10T07:41:54.858Z,71.90
2022-09-10T07:45:00.845Z,72.00
2022-09-10T07:48:03.605Z,72.00
2022-09-10T07:51:11.319Z,71.80
2022-09-10T07:54:16.066Z,71.70
2022-09-10T07:57:28.736Z,71.70
2022-09-10T08:00:31.014Z,71.80
2022-09-10T08:03:38.627Z,71.80
2022-09-10T08:06:40.977Z,71.80
2022-09-10T08:09:43.405Z,71.70
2022-09-10T08:12:50.539Z,71.80
2022-09-10T08:15:52.841Z,71.80
2022-09-10T08:19:00.296Z,71.80
2022-09-10T08:22:04.635Z,71.70
2022-09-10T08:25:13.968Z,71.70
2022-09-10T08:28:22.457Z,71.70
2022-09-10T08:31:27.766Z,71.60
2022-09-10T08:34:36.217Z,71.40
2022-09-10T08:37:42.295Z,71.30
2022-09-10T08:40:44.811Z,71.30
2022-09-10T08:43:56.744Z,71.30
2022-09-10T08:47:01.372Z,71.20
2022-09-10T08:50:16.554Z,71.30
2022-09-10T08:53:32.763Z,71.40
2022-09-10T08:56:35.075Z,71.50
2022-09-10T08:59:44.716Z,71.30
2022-09-10T09:03:10.173Z,71.30
2022-09-10T09:06:41.540Z,71.10
2022-09-10T09:09:45.665Z,71.10
2022-09-10T09:13:18.174Z,71.00
2022-09-10T09:17:05.298Z,71.10
2022-09-10T09:20:36.640Z,71.10
2022-09-10T09:24:12.274Z,71.00
2022-09-10T09:27:20.271Z,71.00
2022-09-10T09:30:33.677Z,71.00
2022-09-10T09:33:39.796Z,70.30
2022-09-10T09:36:49.133Z,68.60
2022-09-10T09:40:17.414Z,66.70
2022-09-10T09:43:31.382Z,67.90
2022-09-10T09:46:34.849Z,68.00
2022-09-10T09:49:40.474Z,67.50
2022-09-10T09:52:44.370Z,67.80
2022-09-10T09:55:52.177Z,67.40
2022-09-10T09:58:54.457Z,66.30
2022-09-10T10:02:33.617Z,65.70
2022-09-10T10:05:36.244Z,66.60
2022-09-10T10:08:54.398Z,66.50
2022-09-10T10:12:05.993Z,66.30
2022-09-10T10:15:38.877Z,66.20
2022-09-10T10:18:43.096Z,65.70
2022-09-10T10:21:47.318Z,64.30
2022-09-10T10:24:52.761Z,64.40
2022-09-10T10:27:54.895Z,64.60
2022-09-10T10:31:00.740Z,64.10
2022-09-10T10:34:28.707Z,64.80
2022-09-10T10:38:01.858Z,65.00
2022-09-10T10:41:37.661Z,65.10
2022-09-10T10:45:08.297Z,64.70
2022-09-10T10:48:37.704Z,65.20
2022-09-10T10:52:15.542Z,64.70
2022-09-10T10:55:17.730Z,64.80
2022-09-10T10:58:44.485Z,64.40
2022-09-10T11:02:20.666Z,64.60
2022-09-10T11:05:39.479Z,64.80
2022-09-10T11:09:02.555Z,64.80
2022-09-10T11:12:28.817Z,64.70
2022-09-10T11:15:55.790Z,65.10
2022-09-10T11:19:35.744Z,65.20
2022-09-10T11:22:49.017Z,65.10
2022-09-10T11:26:43.405Z,65.20
2022-09-10T11:30:10.506Z,65.30
2022-09-10T11:33:20.305Z,65.50
2022-09-10T11:36:32.356Z,65.50
2022-09-10T11:43:42.427Z,65.60
2022-09-10T11:47:07.956Z,65.50
2022-09-10T11:50:23.218Z,65.70
2022-09-10T11:53:26.020Z,65.50
2022-09-10T11:56:43.879Z,65.50
2022-09-10T12:00:07.707Z,65.50
2022-09-10T12:03:33.233Z,65.60
2022-09-10T12:07:04.562Z,65.50
2022-09-10T12:10:25.401Z,65.60
2022-09-10T12:13:27.974Z,65.50
2022-09-10T12:16:42.872Z,65.50
2022-09-10T12:19:49.548Z,65.70
2022-09-10T12:22:54.932Z,65.40
2022-09-10T12:26:08.954Z,65.50
2022-09-10T12:29:26.775Z,66.10
2022-09-10T12:32:30.176Z,65.60
2022-09-10T12:35:35.515Z,65.50
2022-09-10T12:39:16.564Z,65.50
2022-09-10T12:42:31.135Z,65.50
2022-09-10T12:46:04.872Z,65.60
2022-09-10T12:49:13.605Z,65.60
2022-09-10T12:52:40.997Z,65.40
2022-09-10T12:55:55.476Z,65.30
2022-09-10T12:59:10.058Z,65.70
2022-09-10T13:02:29.390Z,65.40
2022-09-10T13:05:51.463Z,65.60
2022-09-10T13:08:54.915Z,65.40
2022-09-10T13:12:04.099Z,65.60
2022-09-10T13:15:07.186Z,65.50
2022-09-10T13:18:09.418Z,65.40
2022-09-10T13:21:40.448Z,65.40
2022-09-10T13:25:03.943Z,65.60
2022-09-10T13:28:31.523Z,65.60
2022-09-10T13:31:36.441Z,65.50
2022-09-10T13:35:01.590Z,65.30
2022-09-10T13:38:31.563Z,64.90
2022-09-10T13:41:36.371Z,63.30
2022-09-10T13:45:00.559Z,62.30
2022-09-10T13:48:24.016Z,60.20
2022-09-10T13:51:47.870Z,61.20
2022-09-10T13:54:55.191Z,60.70
2022-09-10T13:58:20.074Z,60.30
2022-09-10T14:01:52.559Z,61.70
2022-09-10T14:04:55.596Z,61.60
2022-09-10T14:08:12.938Z,60.90
2022-09-10T14:11:23.549Z,61.30
2022-09-10T14:14:30.655Z,61.30
2022-09-10T14:17:43.225Z,60.90
2022-09-10T14:20:45.637Z,60.50
2022-09-10T14:23:49.134Z,60.40
2022-09-10T14:27:06.650Z,60.40
2022-09-10T14:30:24.094Z,60.60
2022-09-10T14:33:35.361Z,60.40
2022-09-10T14:36:37.457Z,59.90
2022-09-10T14:39:44.638Z,60.00
2022-09-10T14:42:49.031Z,59.40
2022-09-10T14:45:51.809Z,59.40
2022-09-10T14:49:00.395Z,59.60
2022-09-10T14:52:03.707Z,59.70
2022-09-10T14:55:06.399Z,59.40
2022-09-10T14:58:10.368Z,59.60
2022-09-10T15:01:12.604Z,59.50
2022-09-10T15:04:17.589Z,59.30
2022-09-10T15:07:19.925Z,59.30
2022-09-10T15:10:22.327Z,59.10
2022-09-10T15:13:24.605Z,59.20
2022-09-10T15:16:29.739Z,59.10
2022-09-10T15:19:32.193Z,59.30
2022-09-10T15:22:34.605Z,59.10
2022-09-10T15:25:50.584Z,58.90
2022-09-10T15:28:52.914Z,59.40
2022-09-10T15:31:59.588Z,59.50
2022-09-10T15:35:01.825Z,59.70
2022-09-10T15:38:03.979Z,59.60
2022-09-10T15:41:14.040Z,59.60
2022-09-10T15:44:16.221Z,60.10
2022-09-10T15:47:18.326Z,60.30
2022-09-10T15:50:20.477Z,60.30
2022-09-10T15:53:22.647Z,60.30
2022-09-10T15:56:26.663Z,60.50
2022-09-10T15:59:28.864Z,60.90
2022-09-10T16:02:31.114Z,60.90
2022-09-10T16:05:35.347Z,60.90
2022-09-10T16:08:37.514Z,61.00
2022-09-10T16:11:42.120Z,61.10
2022-09-10T16:14:45.426Z,61.50
2022-09-10T16:17:47.593Z,61.80
2022-09-10T16:20:49.790Z,61.80
2022-09-10T16:23:53.803Z,62.20
2022-09-10T16:26:56.176Z,62.10
2022-09-10T16:29:58.365Z,62.30
2022-09-10T16:33:00.937Z,62.50
2022-09-10T16:36:06.833Z,62.60
2022-09-10T16:39:12.575Z,62.80
2022-09-10T16:42:14.902Z,62.90
2022-09-10T16:45:17.171Z,63.00
2022-09-10T16:48:19.345Z,63.30
2022-09-10T16:51:23.700Z,63.40
2022-09-10T16:54:26.734Z,63.50
2022-09-10T16:57:29.413Z,63.70
2022-09-10T17:00:31.932Z,63.90
2022-09-10T17:03:34.098Z,64.60
2022-09-10T17:06:36.879Z,64.10
2022-09-10T17:09:39.250Z,64.30
2022-09-10T17:12:43.034Z,64.40
2022-09-10T17:15:45.572Z,64.50
2022-09-10T17:18:48.617Z,64.60
2022-09-10T17:21:53.183Z,64.60
2022-09-10T17:24:56.193Z,64.70
2022-09-10T17:27:59.131Z,64.80
2022-09-10T17:31:01.463Z,64.90
2022-09-10T17:34:04.634Z,64.80
2022-09-10T17:37:06.844Z,64.90
2022-09-10T17:40:09.493Z,64.90
2022-09-10T17:43:13.873Z,65.00
2022-09-10T17:46:19.111Z,65.10
2022-09-10T17:49:21.461Z,65.20
2022-09-10T17:52:23.529Z,65.30
2022-09-10T17:55:26.553Z,65.30
2022-09-10T17:58:40.294Z,65.40
2022-09-10T18:01:43.091Z,65.50
2022-09-10T18:04:49.322Z,65.60
2022-09-10T18:07:51.443Z,65.60
2022-09-10T18:11:02.196Z,65.70
2022-09-10T18:14:04.402Z,65.70
2022-09-10T18:17:06.537Z,65.70
2022-09-10T18:20:09.310Z,65.90
2022-09-10T18:23:11.487Z,66.00
2022-09-10T18:26:15.446Z,66.10
2022-09-10T18:29:26.456Z,66.20
2022-09-10T18:32:28.517Z,66.10
2022-09-10T18:35:30.786Z,66.20
2022-09-10T18:38:32.867Z,66.20
2022-09-10T18:41:38.745Z,66.40
2022-09-10T18:44:41.218Z,66.40
2022-09-10T18:47:45.336Z,66.50
2022-09-10T18:50:47.648Z,66.50
2022-09-10T18:53:53.746Z,66.60
2022-09-10T18:56:56.261Z,66.70
2022-09-10T18:59:58.439Z,66.80
2022-09-10T19:03:00.710Z,66.90
2022-09-10T19:06:15.277Z,66.90
2022-09-10T19:09:25.724Z,67.00
2022-09-10T19:12:27.940Z,67.10
2022-09-10T19:15:30.008Z,67.10
2022-09-10T19:18:32.815Z,67.30
2022-09-10T19:21:36.657Z,67.40
2022-09-10T19:24:55.580Z,67.40
2022-09-10T19:27:58.197Z,67.40
2022-09-10T19:31:03.445Z,67.40
2022-09-10T19:34:07.521Z,67.50
2022-09-10T19:37:10.048Z,67.60
2022-09-10T19:40:12.650Z,67.60
2022-09-10T19:43:15.715Z,67.60
2022-09-10T19:46:19.887Z,67.70
2022-09-10T19:49:22.360Z,67.80
2022-09-10T19:52:25.647Z,67.70
2022-09-10T19:55:27.748Z,67.70
2022-09-10T19:58:29.921Z,67.70
2022-09-10T20:01:33.479Z,67.80
2022-09-10T20:04:35.990Z,67.80
2022-09-10T20:07:38.162Z,67.80
2022-09-10T20:10:40.533Z,67.80
2022-09-10T20:13:43.150Z,67.80
2022-09-10T20:16:45.843Z,67.90
2022-09-10T20:19:47.991Z,67.80
2022-09-10T20:22:50.209Z,67.90
2022-09-10T20:25:52.335Z,67.90
2022-09-10T20:29:19.277Z,68.60
2022-09-10T20:32:21.548Z,67.90
2022-09-10T20:35:23.665Z,67.90
2022-09-10T20:38:26.579Z,67.90
2022-09-10T20:41:30.721Z,68.70
2022-09-10T20:44:32.985Z,67.90
2022-09-10T20:47:42.972Z,67.90
2022-09-10T20:50:59.066Z,67.90
2022-09-10T20:54:05.451Z,68.00
2022-09-10T20:57:07.851Z,67.90
2022-09-10T21:00:11.607Z,67.90
2022-09-10T21:03:13.990Z,68.00
2022-09-10T21:06:18.548Z,67.90
2022-09-10T21:09:20.710Z,68.00
2022-09-10T21:12:22.910Z,68.00
2022-09-10T21:15:25.237Z,68.00
2022-09-10T21:18:28.333Z,68.00
2022-09-10T21:21:34.214Z,68.10
2022-09-10T21:24:36.388Z,68.00
2022-09-10T21:27:38.519Z,68.00
2022-09-10T21:30:40.706Z,68.00
2022-09-10T21:33:43.535Z,68.00
2022-09-10T21:36:45.716Z,68.00
2022-09-10T21:43:15.973Z,67.90
2022-09-10T21:46:18.744Z,67.90
2022-09-10T21:49:21.251Z,68.00
2022-09-10T21:52:24.165Z,68.00
2022-09-10T21:55:26.296Z,68.00
2022-09-10T21:58:30.886Z,67.90
2022-09-10T22:01:33.122Z,68.00
2022-09-10T22:04:35.431Z,68.00
2022-09-10T22:07:37.561Z,67.90
2022-09-10T22:10:43.816Z,67.90
2022-09-10T22:13:52.000Z,67.90
2022-09-10T22:16:54.305Z,68.00
2022-09-10T22:20:02.699Z,67.90
2022-09-10T22:23:28.139Z,67.80
2022-09-10T22:26:33.540Z,68.60
2022-09-10T22:29:35.685Z,67.80
2022-09-10T22:32:37.816Z,67.80
2022-09-10T22:35:39.961Z,67.80
2022-09-10T22:38:53.439Z,67.80
2022-09-10T22:41:55.583Z,67.80
2022-09-10T22:44:58.085Z,67.80
2022-09-10T22:48:00.229Z,67.80
2022-09-10T22:51:02.389Z,67.80
2022-09-10T22:54:06.082Z,67.80
2022-09-10T22:57:08.665Z,67.90
2022-09-10T23:00:13.762Z,67.80
2022-09-10T23:03:16.316Z,67.90
2022-09-10T23:06:21.045Z,67.80
2022-09-10T23:09:23.379Z,67.80
2022-09-10T23:12:25.639Z,67.80
2022-09-10T23:15:31.686Z,67.80
2022-09-10T23:18:33.823Z,67.80
2022-09-10T23:21:36.931Z,67.70
2022-09-10T23:24:39.050Z,67.70
2022-09-10T23:31:27.953Z,67.80
2022-09-10T23:34:30.128Z,67.70
2022-09-10T23:41:16.134Z,67.70
2022-09-10T23:44:18.415Z,67.70
2022-09-10T23:50:48.230Z,67.70
2022-09-10T23:53:50.538Z,67.70
2022-09-10T23:56:52.692Z,67.70
2022-09-10T23:59:55.185Z,67.70
